CDT,Max TemperatureF,Mean TemperatureF,Min TemperatureF,Max Dew PointF,MeanDew PointF,Min DewpointF,Max Humidity, Mean Humidity, Min Humidity, Max Sea Level PressureIn, Mean Sea Level PressureIn, Min Sea Level PressureIn, Max VisibilityMiles, Mean VisibilityMiles, Min VisibilityMiles, Max Wind SpeedMPH, Mean Wind SpeedMPH, Max Gust SpeedMPH,PrecipitationIn, CloudCover, Events, WindDirDegrees
2014-4-1,53,39,24,25,23,20,81,58,35,30.15,30.06,29.97,10,10,10,16,8,23,0.00,2,,20
2014-4-2,44,41,38,42,36,23,100,75,50,29.99,29.82,29.70,10,6,2,20,12,24,0.10,7,Rain-Thunderstorm,56
2014-4-3,42,38,33,42,39,33,100,96,92,29.96,29.73,29.65,10,4,1,28,16,35,0.33,8,Rain-Snow-Thunderstorm,359
2014-4-4,49,41,33,33,29,26,96,71,46,30.20,30.09,29.92,10,10,10,26,12,37,0.00,4,,324
2014-4-5,66,49,32,31,29,26,82,53,24,30.14,30.05,29.93,10,10,6,25,16,33,0.00,2,,168
2014-4-6,63,55,46,41,37,30,77,59,40,29.97,29.90,29.81,10,9,4,21,9,24,T,7,,184
2014-4-7,65,52,39,47,40,31,93,61,28,30.02,29.87,29.78,10,9,3,32,11,39,0.10,5,Rain,316
2014-4-8,62,48,34,35,25,13,89,52,15,30.12,30.08,30.01,10,10,10,26,13,36,0.00,0,,328
2014-4-9,88,66,43,34,26,17,40,26,12,30.07,29.86,29.64,10,10,10,33,17,40,0.00,0,,208
2014-4-10,67,57,47,38,31,22,51,35,19,30.01,29.85,29.60,10,10,10,31,13,38,0.00,0,,47
2014-4-11,78,61,44,47,31,24,53,36,18,30.06,29.95,29.78,10,9,5,21,9,26,0.00,2,,170
2014-4-12,85,72,59,59,55,50,90,62,33,29.76,29.59,29.46,10,10,5,26,14,35,0.00,0,,180
2014-4-13,64,49,33,53,42,27,100,82,64,30.01,29.67,29.46,10,7,2,38,21,47,0.03,8,Rain-Snow,10
2014-4-14,49,39,29,29,21,15,78,53,28,30.28,30.18,30.01,10,10,10,31,17,43,T,5,Rain,336
2014-4-15,63,43,22,28,21,17,92,55,17,30.22,30.07,29.83,10,10,9,25,13,33,0.00,0,,196
2014-4-16,71,54,37,39,26,17,70,47,23,30.14,29.81,29.66,10,10,10,37,21,49,0.00,0,,233
2014-4-17,56,45,33,30,27,26,75,54,32,30.35,30.27,30.16,10,10,8,20,8,26,0.00,3,,37
2014-4-18,72,51,30,42,36,29,92,64,35,30.27,30.18,30.05,10,7,2,26,14,37,0.00,0,,161
2014-4-19,82,67,52,50,46,39,67,50,33,30.05,29.97,29.91,10,10,10,33,21,46,0.00,0,,172
2014-4-20,80,70,59,57,52,49,90,65,39,29.98,29.95,29.91,10,10,10,25,17,31,0.01,2,,189
2014-4-21,77,64,50,57,43,24,93,55,16,30.12,30.01,29.91,10,10,8,25,11,35,0.01,3,Rain,339
2014-4-22,75,56,36,33,30,28,64,42,19,30.15,30.05,29.89,10,10,10,23,11,27,0.00,1,,116
2014-4-23,83,68,53,50,44,33,61,46,30,29.88,29.68,29.42,10,10,9,35,21,48,T,4,Rain-Thunderstorm,154
2014-4-24,70,61,52,55,46,31,100,62,23,29.85,29.70,29.55,10,9,2,24,13,34,0.37,6,Rain-Thunderstorm,327
2014-4-25,82,65,48,43,36,30,56,37,17,29.87,29.79,29.70,10,10,10,25,14,32,0.00,0,,203
2014-4-26,86,71,56,60,50,42,61,49,36,29.69,29.52,29.37,10,10,10,35,20,43,0.00,0,,159
2014-4-27,79,66,53,64,49,28,90,53,16,29.36,29.23,29.08,10,7,2,37,21,48,0.02,4,Rain-Thunderstorm,169
2014-4-28,54,48,41,45,40,37,89,74,59,29.50,29.33,29.22,10,10,6,30,21,37,0.03,6,Rain,278
2014-4-29,43,41,39,39,38,37,100,91,82,29.98,29.75,29.50,10,10,7,32,20,44,0.29,8,Rain,320
2014-4-30,57,49,40,39,32,24,89,61,32,30.07,30.02,29.97,10,10,10,31,17,40,0.00,7,,316